createdAt,value
2019-03-04T00:07:05.010Z,12.90
2019-03-04T00:12:13.861Z,12.90
2019-03-04T00:17:18.726Z,12.90
2019-03-04T00:22:24.145Z,12.90
2019-03-04T00:27:30.628Z,12.80
2019-03-04T00:32:36.277Z,12.80
2019-03-04T00:37:42.774Z,12.80
2019-03-04T00:42:48.042Z,12.80
2019-03-04T00:47:53.952Z,12.70
2019-03-04T00:52:59.252Z,12.80
2019-03-04T00:58:06.034Z,13.60
2019-03-04T01:03:11.664Z,12.80
2019-03-04T01:08:16.689Z,12.80
2019-03-04T01:13:24.023Z,12.80
2019-03-04T01:18:29.205Z,12.80
2019-03-04T01:23:34.436Z,12.90
2019-03-04T01:28:40.611Z,13.10
2019-03-04T01:33:46.545Z,13.10
2019-03-04T01:38:53.303Z,13.10
2019-03-04T01:43:58.695Z,13.10
2019-03-04T01:49:12.117Z,13.10
2019-03-04T01:54:18.550Z,13.10
2019-03-04T01:59:24.641Z,13.10
2019-03-04T02:04:33.232Z,13.00
2019-03-04T02:09:45.246Z,13.00
2019-03-04T02:14:50.085Z,12.90
2019-03-04T02:19:58.163Z,12.90
2019-03-04T02:25:03.147Z,12.80
2019-03-04T02:30:15.360Z,12.80
2019-03-04T02:35:22.852Z,12.70
2019-03-04T02:40:28.923Z,12.60
2019-03-04T02:45:33.950Z,12.70
2019-03-04T02:50:42.938Z,12.70
2019-03-04T02:55:48.888Z,12.70
2019-03-04T03:00:54.056Z,12.80
2019-03-04T03:05:59.103Z,12.70
2019-03-04T03:11:04.782Z,12.80
2019-03-04T03:16:09.816Z,12.80
2019-03-04T03:21:14.939Z,12.80
2019-03-04T03:26:19.882Z,12.90
2019-03-04T03:31:25.161Z,13.00
2019-03-04T03:36:37.207Z,13.10
2019-03-04T03:41:42.188Z,13.10
2019-03-04T03:46:47.128Z,13.30
2019-03-04T03:51:52.173Z,13.40
2019-03-04T03:56:59.154Z,13.40
2019-03-04T04:02:04.341Z,13.40
2019-03-04T04:07:10.382Z,13.40
2019-03-04T04:12:15.604Z,9.00
2019-03-04T04:17:24.025Z,13.30
2019-03-04T04:22:29.086Z,13.30
2019-03-04T04:27:34.589Z,13.20
2019-03-04T04:32:39.501Z,13.20
2019-03-04T04:42:49.471Z,13.60
2019-03-04T04:47:54.281Z,13.60
2019-03-04T04:52:59.725Z,13.40
2019-03-04T04:58:04.811Z,13.30
2019-03-04T05:03:09.906Z,13.40
2019-03-04T05:08:16.232Z,13.40
2019-03-04T05:18:29.515Z,13.40
2019-03-04T05:33:46.311Z,13.20
2019-03-04T05:38:55.053Z,13.40
2019-03-04T05:44:01.055Z,13.30
2019-03-04T05:49:06.034Z,13.20
2019-03-04T05:54:11.011Z,13.10
2019-03-04T05:59:19.587Z,13.00
2019-03-04T06:04:22.869Z,11.30
2019-03-04T06:34:50.639Z,8.20
2019-03-04T06:50:04.011Z,8.90
2019-03-04T07:16:24.034Z,9.20
2019-03-04T07:21:29.235Z,9.10
2019-03-04T07:31:38.656Z,9.40
2019-03-04T07:41:49.551Z,10.20
2019-03-04T07:46:55.542Z,10.10
2019-03-04T08:02:12.806Z,10.00
2019-03-04T08:07:41.111Z,10.00
2019-03-04T08:13:05.738Z,9.70
2019-03-04T08:28:18.970Z,10.50
2019-03-04T08:33:23.746Z,11.40
2019-03-04T08:38:29.419Z,11.70
2019-03-04T08:48:38.576Z,11.60
2019-03-04T08:53:46.474Z,12.20
2019-03-04T09:09:01.117Z,11.60
2019-03-04T09:14:06.400Z,11.20
2019-03-04T09:29:22.817Z,11.10
2019-03-04T09:44:40.927Z,9.70
2019-03-04T09:54:51.977Z,9.40
2019-03-04T10:10:46.293Z,9.70
2019-03-04T10:21:25.066Z,10.00
2019-03-04T10:27:18.334Z,10.00
2019-03-04T10:33:01.834Z,10.10
2019-03-04T10:48:33.603Z,10.30
2019-03-04T10:58:50.432Z,9.50
2019-03-04T11:04:03.193Z,8.40
2019-03-04T11:09:11.770Z,8.30
2019-03-04T11:14:17.599Z,8.60
2019-03-04T11:19:22.715Z,9.30
2019-03-04T11:24:27.696Z,9.80
2019-03-04T11:29:43.400Z,9.60
2019-03-04T11:40:13.106Z,9.70
2019-03-04T11:45:21.791Z,9.70
2019-03-04T11:50:26.152Z,10.20
2019-03-04T11:55:33.637Z,10.30
2019-03-04T12:00:43.101Z,10.10
2019-03-04T12:05:48.992Z,10.20
2019-03-04T12:10:57.088Z,10.40
2019-03-04T12:21:06.444Z,10.90
2019-03-04T12:31:23.970Z,10.20
2019-03-04T12:56:50.331Z,9.90
2019-03-04T13:01:55.344Z,9.90
2019-03-04T13:07:01.765Z,9.90
2019-03-04T13:17:12.228Z,9.80
2019-03-04T13:22:17.089Z,9.80
2019-03-04T13:27:23.994Z,9.50
2019-03-04T13:42:38.169Z,10.30
2019-03-04T14:02:57.216Z,12.40
2019-03-04T14:08:02.289Z,13.00
2019-03-04T14:13:07.394Z,13.20
2019-03-04T14:18:18.125Z,13.60
2019-03-04T14:23:44.044Z,12.90
2019-03-04T14:28:49.540Z,12.70
2019-03-04T14:33:54.925Z,12.80
2019-03-04T14:39:01.894Z,13.80
2019-03-04T14:49:13.797Z,13.10
2019-03-04T15:04:30.475Z,12.10
2019-03-04T15:09:48.922Z,12.10
2019-03-04T15:14:47.245Z,11.90
2019-03-04T15:19:58.200Z,11.90
2019-03-04T15:25:09.120Z,12.20
2019-03-04T15:30:14.809Z,12.20
2019-03-04T15:35:20.152Z,12.00
2019-03-04T15:40:27.997Z,12.00
2019-03-04T15:45:34.095Z,12.30
2019-03-04T15:50:39.060Z,12.10
2019-03-04T16:00:55.053Z,11.30
2019-03-04T16:06:02.580Z,11.20
2019-03-04T16:16:11.972Z,11.00
2019-03-04T16:21:17.220Z,10.80
2019-03-04T16:26:23.213Z,10.90
2019-03-04T16:31:28.540Z,10.90
2019-03-04T16:36:33.878Z,10.90
2019-03-04T16:41:39.469Z,10.80
2019-03-04T16:51:52.491Z,10.10
2019-03-04T16:56:57.829Z,10.40
2019-03-04T17:02:04.835Z,9.70
2019-03-04T17:07:14.120Z,9.80
2019-03-04T17:12:20.459Z,9.60
2019-03-04T17:17:27.104Z,9.70
2019-03-04T17:22:33.806Z,9.80
2019-03-04T17:27:38.908Z,9.70
2019-03-04T17:32:46.167Z,9.20
2019-03-04T17:43:03.291Z,9.00
2019-03-04T17:53:26.129Z,8.90
2019-03-04T17:58:33.202Z,8.70
2019-03-04T18:14:03.070Z,8.60
2019-03-04T18:24:28.663Z,8.50
2019-03-04T18:30:27.943Z,8.70
2019-03-04T18:41:35.830Z,8.50
2019-03-04T18:47:29.661Z,8.50
2019-03-04T18:52:38.064Z,8.30
2019-03-04T18:57:48.287Z,8.30
2019-03-04T19:03:01.610Z,8.20
2019-03-04T19:08:19.549Z,8.10
2019-03-04T19:13:28.397Z,8.10
2019-03-04T19:18:48.424Z,8.10
2019-03-04T19:34:24.105Z,8.10
2019-03-04T19:55:40.142Z,8.00
2019-03-04T20:06:32.608Z,8.00
2019-03-04T20:11:40.775Z,8.10
2019-03-04T20:22:33.573Z,8.10
2019-03-04T20:27:47.609Z,7.90
2019-03-04T20:43:40.604Z,8.30
2019-03-04T20:48:47.595Z,8.30
2019-03-04T21:04:28.884Z,7.90
2019-03-04T21:09:36.275Z,6.20
2019-03-04T21:25:59.007Z,6.90
